Tiempo atmosférico en la estación meteorológica de Campos, Salines Llevant, Illes Balears (3 m.)



Fecha
DESCASC
Temp. máxima en grados centígrados (hora)
DESCASC
Temp. mínima en grados centígrados (hora)
DESCASC
Temp. media en grados centígrados
DESCASC
Racha de viento máxima en m/sg (hora)
DESCASC
Velocidad máxima media en intervalos de 10 minutos(hora)
DESCASC
Precipitaciones diarias en mm
DESCASC
Precipitaciones de 00:00 a 06:00 en mm
DESCASC
Precipitaciones de 06:00 a 12:00 en mm
DESCASC
Precipitaciones de 12:00 a 18:00 en mm
DESCASC
Precipitaciones de 18:00 a 24:00 en mm
DESCASC
23-05-2018 23.8 (16:40) 13.7 (06:20) 18.7 7.22 (13:50) 5 (19:10) 0 0 0 0 0
22-05-2018 22.2 (13:40) 11.5 (05:20) 16.9 8.61 (11:40) 5.56 (11:30) 0 0 0 0 0
21-05-2018 20.6 (14:40) 16.1 (00:10) 18.4 7.78 (13:40) 5 (15:00) 0.4 0.4 0 0 0
20-05-2018 22.7 (12:40) 10.3 (00:00) 16.5 8.06 (13:00) 5.56 (13:00) 0 0 0 0 0
19-05-2018 23.9 (16:50) 12 (00:00) 17.9 10.28 (18:20) 6.94 (18:10) 0 0 0 0 0
18-05-2018 20.9 (16:00) 13.2 (00:00) 17 7.78 (17:00) 5 (16:30) 0 0 0 0 0
17-05-2018 22.8 (13:40) 9.7 (00:00) 16.2 12.5 (15:40) 7.22 (15:50) 0 0 0 0 0
16-05-2018 22.8 (16:20) 8.2 (00:00) 15.5 8.33 (12:40) 5.28 (17:30) 0 0 0 0 0
15-05-2018 19.7 (14:30) 7.3 (00:00) 13.5 10.28 (17:20) 6.94 (17:20) 0 0 0 0 0
14-05-2018 19.6 (13:40) 9.4 (00:00) 14.5 13.33 (14:40) 8.89 (15:30) 0 0 0 0 0
13-05-2018 18.7 (16:00) 9.8 (00:00) 14.3 16.67 (06:50) 10.28 (06:30) 7.4 7.4 0 0 0
12-05-2018 19.8 (15:10) 11.4 (00:00) 15.6 7.22 (12:20) 4.72 (12:40) 0 0 0 0 0
11-05-2018 22.2 (15:00) 10.8 (05:50) 16.5 8.89 (14:00) 5.28 (14:40) 0 0 0 0 0
10-05-2018 22.7 (13:40) 15 (00:00) 18.9 10 (15:10) 6.67 (15:10) 0 0 0 0 0
09-05-2018 20 (16:10) 13 (00:00) 16.5 9.17 (11:40) 5.83 (11:00) 0 0 0 0 0
08-05-2018 19.6 (14:50) 12.4 (00:00) 16 10.83 (12:40) 5.56 (12:50) 0 0 0 0 0
07-05-2018 20.1 (15:10) 12.7 (00:00) 16.4 7.5 (15:40) 5 (15:20) 0 0 0 0 0
06-05-2018 22.2 (14:20) 11.5 (00:00) 16.9 10.28 (11:20) 7.22 (11:20) 0 0 0 0 0
05-05-2018 18.5 (16:10) 12.8 (00:00) 15.7 10 (15:30) 6.94 (16:10) 15.4 1.2 14.2 0 0
04-05-2018 17.2 (13:00) 10.3 (00:00) 13.8 6.67 (15:30) 5.28 (15:10) 1 0 0.2 0.6 0.2
03-05-2018 22.2 (14:00) 6.8 (00:00) 14.5 10 (16:40) 6.39 (17:20) 0 0 0 0 0
02-05-2018 19.2 (18:20) 5.6 (00:00) 12.4 15.83 (16:40) 9.72 (16:10) 0 0 0 0 0
01-05-2018 16.5 (12:30) 8 (23:59) 12.3 10.28 (14:50) 8.33 (14:40) 14.4 4.6 1.6 8.2 0
30-04-2018 18.5 (12:40) 14.1 (00:00) 16.3 10.56 (01:20) 6.11 (09:40) 0 0 0 0 0
29-04-2018 19.3 (16:10) 12.6 (00:00) 15.9 13.61 (15:20) 8.33 (16:50) 0.4 0 0.4 0 0
28-04-2018 21 (13:50) 10.2 (00:00) 15.6 9.72 (16:40) 5.83 (16:40) 0 0 0 0 0

Gráficas

Temp. máximas Temp. mínimas Temp. medias Precipitaciones Rachas de viento máximas Velocidades máximas media en intervalos de 10 minutos

Datos horarios

Fecha y hora oficial Temperatura (ºC) Velocidad del viento (km/h) Dirección del viento Racha (km/h) Dirección de racha Precipitación (mm) Presión (hPa) Tendencia (hPa) Humedad (%)
2018-05-27 23:00:00 20.1 14 Oeste 25 Oeste 0 -- -- 90
2018-05-27 22:00:00 20.4 13 Oeste 26 Oeste 0 -- -- 89
2018-05-27 21:00:00 20.4 15 Oeste 26 Oeste 0 -- -- 88
2018-05-27 20:00:00 21.3 18 Oeste 35 Oeste 0 -- -- 85
2018-05-27 19:00:00 22.2 19 Oeste 26 Oeste 0 -- -- 82
2018-05-27 18:00:00 22.6 14 Sudoeste 31 Oeste 0 -- -- 82
2018-05-27 17:00:00 22.4 15 Sudoeste 32 Oeste 0 -- -- 81
2018-05-27 16:00:00 22.7 18 Sudoeste 30 Sudoeste 0 -- -- 80
2018-05-27 15:00:00 22.5 16 Sudoeste 27 Sudoeste 0 -- -- 79
2018-05-27 14:00:00 22.1 18 Oeste 27 Oeste 0 -- -- 82
2018-05-27 13:00:00 21.2 12 Sudoeste 28 Oeste 0 -- -- 86
2018-05-27 12:00:00 21.3 15 Oeste 25 Oeste 0 -- -- 84
2018-05-27 11:00:00 21.2 14 Oeste 21 Oeste 0 -- -- 82
2018-05-27 10:00:00 21.1 4 Noroeste 11 Nordeste 0 -- -- 80
2018-05-27 09:00:00 20.3 2 Norte 13 Noroeste 0 -- -- 84
2018-05-27 08:00:00 19.4 11 Noroeste 14 Noroeste 0 -- -- 89
2018-05-27 07:00:00 19.2 4 Norte 8 Norte 0 -- -- 91
2018-05-27 06:00:00 19.4 6 Norte 10 Noroeste 0 -- -- 90
2018-05-27 05:00:00 19.2 4 Norte 12 Nordeste 0 -- -- 91
2018-05-27 04:00:00 19.1 8 Nordeste 13 Nordeste 0 -- -- 91
2018-05-27 03:00:00 19.1 8 Norte 10 Norte 0 -- -- 91
2018-05-27 02:00:00 19.2 5 Norte 8 Norte 0 -- -- 90
2018-05-27 01:00:00 19.6 7 Nordeste 14 Este 0 -- -- 89
2018-05-27 00:00:00 19.6 7 Este 13 Este 0 -- -- 89
2018-05-26 23:00:00 19.9 8 Nordeste 18 Este 0 -- -- 88
2018-05-26 22:00:00 20.1 9 Este 20 Este 0 -- -- 87
2018-05-26 21:00:00 20.5 11 Este 24 Sudeste 0 -- -- 85
2018-05-26 20:00:00 20.6 17 Este 31 Este 0 -- -- 85
2018-05-26 19:00:00 20.8 21 Este 32 Este 0 -- -- 85
2018-05-26 18:00:00 21.8 18 Este 32 Este 0 -- -- 80
2018-05-26 17:00:00 23.3 18 Este 35 Este 0 -- -- 74
2018-05-26 16:00:00 23.9 18 Este 28 Este 0 -- -- 71
2018-05-26 15:00:00 24 14 Este 26 Este 0 -- -- 71
2018-05-26 14:00:00 23.3 15 Este 24 Este 0 -- -- 75
2018-05-26 13:00:00 22.3 13 Este 27 Este 0 -- -- 77
2018-05-26 12:00:00 22.1 17 Este 33 Este 0 -- -- 77
2018-05-26 11:00:00 21.3 13 Este 20 Este 0 -- -- 80
2018-05-26 10:00:00 21.1 6 Este 10 Este 0 -- -- 81
2018-05-26 09:00:00 20 5 Norte 7 Norte 0 -- -- 88
2018-05-26 08:00:00 19.6 3 Norte 6 Nordeste 0 -- -- 88
2018-05-26 07:00:00 19.1 4 Nordeste 9 Este 0 -- -- 92
2018-05-26 06:00:00 19 6 Este 12 Este 0 -- -- 92
2018-05-26 05:00:00 19 6 Este 16 Sudeste 0 -- -- 92
2018-05-26 04:00:00 19.1 0 Calma 10 Este 0 -- -- 92
2018-05-26 03:00:00 19.1 10 Este 15 Nordeste 0 -- -- 93
2018-05-26 02:00:00 19.7 3 Norte 10 Nordeste 0 -- -- 91
2018-05-26 01:00:00 19.8 5 Este 11 Este 0 -- -- 89
2018-05-26 00:00:00 19.8 6 Sudeste 14 Sudeste 0 -- -- 90
2018-05-25 23:00:00 19.5 4 Sudeste 19 Este 0 -- -- 91
2018-05-25 22:00:00 19.8 12 Este 22 Este 0 -- -- 90
2018-05-25 21:00:00 20.2 10 Sudeste 26 Sudeste 0 -- -- 88
2018-05-25 20:00:00 21.7 18 Sudeste 31 Sudeste 0 -- -- 79
2018-05-25 19:00:00 23 22 Sudeste 34 Sudeste 0 -- -- 74
2018-05-25 18:00:00 23.8 21 Sudeste 34 Sudeste 0 -- -- 71
2018-05-25 17:00:00 24.3 20 Sudeste 29 Sudeste 0 -- -- 68
2018-05-25 16:00:00 24.7 18 Sudeste 28 Sudeste 0 -- -- 66
2018-05-25 15:00:00 24.9 16 Sudeste 26 Este 0 -- -- 65
2018-05-25 14:00:00 24.4 14 Sudeste 28 Sudeste 0 -- -- 66
2018-05-25 13:00:00 23.7 20 Sudeste 31 Sudeste 0 -- -- 67
2018-05-25 12:00:00 23 23 Sudeste 35 Sudeste 0 -- -- 68
2018-05-25 11:00:00 22 18 Sudeste 38 Este 0 -- -- 70
2018-05-25 10:00:00 21.5 23 Este 50 Este 0 -- -- 70
2018-05-25 09:00:00 21.1 22 Este 50 Este 0 -- -- 71
2018-05-25 08:00:00 20.1 15 Este 29 Nordeste 0 -- -- 79
2018-05-25 07:00:00 19 18 Nordeste 32 Nordeste 0 -- -- 81
2018-05-25 06:00:00 18.2 7 Nordeste 21 Nordeste 0 -- -- 81
2018-05-25 05:00:00 18.4 10 Nordeste 22 Este 0 -- -- 79
2018-05-25 04:00:00 19.5 17 Nordeste 33 Nordeste 0 -- -- 74
2018-05-25 03:00:00 19.4 14 Este 28 Este 0 -- -- 75
2018-05-25 02:00:00 19.3 22 Este 37 Este 0 -- -- 79
2018-05-25 01:00:00 18.2 6 Nordeste 15 Nordeste 0 -- -- 82
2018-05-25 00:00:00 19.4 12 Nordeste 25 Nordeste 0 -- -- 77
2018-05-24 23:00:00 19.3 14 Nordeste 27 Este 0 -- -- 78
2018-05-24 22:00:00 19.5 14 Nordeste 30 Este 0 -- -- 77
2018-05-24 21:00:00 20.4 13 Este 30 Este 0 -- -- 72
2018-05-24 20:00:00 21.8 14 Este 33 Este 0 -- -- 64
2018-05-24 19:00:00 23.4 20 Este 36 Este 0 -- -- 56
2018-05-24 18:00:00 23.9 24 Este 42 Este 0 -- -- 55
2018-05-24 17:00:00 24.9 22 Este 40 Este 0 -- -- 48
2018-05-24 16:00:00 25 23 Este 36 Sudeste 0 -- -- 47
2018-05-24 15:00:00 24.7 22 Este 36 Sudeste 0 -- -- 50
2018-05-24 14:00:00 24.2 21 Este 37 Este 0 -- -- 54
2018-05-24 13:00:00 24.2 24 Este 35 Este 0 -- -- 53
2018-05-24 12:00:00 23.8 24 Este 33 Este 0 -- -- 55
2018-05-24 11:00:00 21 14 Este 27 Este 0 -- -- 72
2018-05-24 10:00:00 20.4 12 Este 18 Este 0 -- -- 73
2018-05-24 09:00:00 19.3 8 Este 16 Nordeste 0 -- -- 84
2018-05-24 08:00:00 16.8 6 Norte 15 Nordeste 0 -- -- 96
2018-05-24 07:00:00 15.7 12 Nordeste 19 Nordeste 0 -- -- 96
2018-05-24 06:00:00 15.4 11 Nordeste 18 Nordeste 0 -- -- 96
2018-05-24 05:00:00 15.4 8 Nordeste 13 Nordeste 0 -- -- 95
2018-05-24 04:00:00 15.3 4 Nordeste 10 Nordeste 0 -- -- 95
2018-05-24 03:00:00 15 3 Nordeste 13 Nordeste 0 -- -- 93
2018-05-24 02:00:00 15.4 7 Nordeste 9 Nordeste 0 -- -- 95
2018-05-24 01:00:00 15 0 Calma 4 Nordeste 0 -- -- 93
2018-05-24 00:00:00 15.8 0 Calma 6 Nordeste 0 -- -- 91
2018-05-23 23:00:00 17.2 0 Calma 6 Nordeste 0 -- -- 89
2018-05-23 22:00:00 18.5 4 Nordeste 6 Sudeste 0 -- -- 88
2018-05-23 21:00:00 19.5 7 Sudeste 20 Sudeste 0 -- -- 81
2018-05-23 20:00:00 21.3 14 Sudeste 24 Sudeste 0 -- -- 70
2018-05-23 19:00:00 22.3 17 Sudeste 24 Sudeste 0 -- -- 60
2018-05-23 18:00:00 23.6 15 Sur 22 Sudeste 0 -- -- 60
2018-05-23 17:00:00 23.7 14 Sur 23 Sur 0 -- -- 57
2018-05-23 16:00:00 23.2 14 Sudoeste 23 Sudoeste 0 -- -- 61
2018-05-23 15:00:00 22.9 10 Sur 21 Sudoeste 0 -- -- 66
2018-05-23 14:00:00 22.2 14 Sudoeste 26 Sudoeste 0 -- -- 74
2018-05-23 13:00:00 21.7 11 Sur 21 Sudoeste 0 -- -- 75
2018-05-23 12:00:00 21.5 13 Sur 21 Sur 0 -- -- 74
2018-05-23 11:00:00 21.5 11 Oeste 18 Sudoeste 0 -- -- 79
2018-05-23 10:00:00 19.6 5 Oeste 7 Oeste 0 -- -- 96
2018-05-23 09:00:00 17 4 Noroeste 5 Noroeste 0 -- -- 99
2018-05-23 08:00:00 15.1 3 Nordeste 5 Norte 0 -- -- 99
2018-05-23 07:00:00 13.8 0 Calma 4 Nordeste 0 -- -- 98
2018-05-23 06:00:00 14 2 Sudeste 3 Sudeste 0 -- -- 98
2018-05-23 05:00:00 14.2 0 Calma 4 Noroeste 0 -- -- 97
2018-05-23 04:00:00 14.2 3 Norte 4 Norte 0 -- -- 96
2018-05-23 03:00:00 13.8 0 Calma 4 Norte 0 -- -- 95
2018-05-23 02:00:00 15.3 2 Nordeste 5 Sudeste 0 -- -- 95
2018-05-23 01:00:00 15.6 4 Sudeste 5 Sudeste 0 -- -- 94
2018-05-23 00:00:00 15.6 4 Sudeste 5 Sudeste 0 -- -- 92
2018-05-22 23:00:00 17.3 3 Sur 10 Sudoeste 0 -- -- 90
2018-05-22 22:00:00 18.8 3 Sudoeste 9 Sudoeste 0 -- -- 90
2018-05-22 21:00:00 19.6 4 Sudoeste 15 Sudoeste 0 -- -- 85
2018-05-22 20:00:00 21.1 11 Oeste 20 Oeste 0 -- -- 78
2018-05-22 19:00:00 21.3 14 Oeste 23 Sudoeste 0 -- -- 78
2018-05-22 18:00:00 21.4 17 Sudoeste 28 Sudoeste 0 -- -- 75
2018-05-22 17:00:00 21.4 17 Sudoeste 27 Sudoeste 0 -- -- 76
2018-05-22 16:00:00 21.9 15 Sudoeste 27 Oeste 0 -- -- 73
2018-05-22 15:00:00 21.9 18 Sudoeste 29 Oeste 0 -- -- 73
2018-05-22 14:00:00 21.7 18 Sudoeste 31 Sudoeste 0 -- -- 73
2018-05-22 13:00:00 21.3 18 Sudoeste 27 Sudoeste 0 -- -- 75
2018-05-22 12:00:00 21 19 Oeste 31 Sudoeste 0 -- -- 75
2018-05-22 11:00:00 20.6 16 Oeste 27 Oeste 0 -- -- 76
2018-05-22 10:00:00 19.9 15 Oeste 24 Oeste 0 -- -- 81
2018-05-22 09:00:00 16.9 0 Calma 4 Norte 0 -- -- 96
2018-05-22 08:00:00 13.7 0 Calma 3 Norte 0 -- -- 98
2018-05-22 07:00:00 12.6 0 Calma 5 Norte 0 -- -- 97
2018-05-22 06:00:00 12.1 3 Norte 6 Norte 0 -- -- 96
2018-05-22 05:00:00 11.8 0 Calma 4 Norte 0 -- -- 95
2018-05-22 04:00:00 13 0 Calma 5 Sur 0 -- -- 94
2018-05-22 03:00:00 14.4 2 Este 9 Noroeste 0 -- -- 92
2018-05-22 02:00:00 16.2 3 Noroeste 7 Oeste 0 -- -- 92
2018-05-22 01:00:00 17.6 6 Oeste 11 Oeste 0 -- -- 89
2018-05-22 00:00:00 18.3 8 Oeste 13 Oeste 0 -- -- 88
2018-05-21 23:00:00 18.7 6 Oeste 14 Oeste 0 -- -- 89
2018-05-21 22:00:00 18.8 10 Oeste 18 Sudoeste 0 -- -- 87
2018-05-21 21:00:00 19.2 12 Oeste 19 Oeste 0 -- -- 84
2018-05-21 20:00:00 19.6 14 Oeste 21 Oeste 0 -- -- 84
2018-05-21 19:00:00 19.7 13 Oeste 21 Sudoeste 0 -- -- 83
2018-05-21 18:00:00 19.8 13 Sudoeste 23 Sudoeste 0 -- -- 82
2018-05-21 17:00:00 19.4 11 Sudoeste 26 Sudoeste 0 -- -- 79
2018-05-21 16:00:00 19.8 13 Sudoeste 24 Sudoeste 0 -- -- 73
2018-05-21 15:00:00 20.1 18 Oeste 26 Oeste 0 -- -- 74
2018-05-21 14:00:00 19 13 Sudoeste 28 Oeste 0 -- -- 74
2018-05-21 13:00:00 19.8 15 Sudoeste 26 Sudoeste 0 -- -- 75
2018-05-21 12:00:00 19.5 13 Sudoeste 24 Oeste 0 -- -- 76
2018-05-21 11:00:00 18.6 15 Sudoeste 22 Sudoeste 0 -- -- 82
2018-05-21 10:00:00 17.7 11 Sur 18 Sur 0 -- -- 87
2018-05-21 09:00:00 16.4 10 Sur 21 Este 0 -- -- 89
2018-05-21 08:00:00 16.6 11 Este 18 Este 0 -- -- 90
2018-05-21 07:00:00 17.4 8 Noroeste 15 Oeste 0 -- -- 92
2018-05-21 06:00:00 17.3 6 Sudoeste 19 Sudoeste 0.2 -- -- 92
2018-05-21 05:00:00 17.4 8 Sudoeste 13 Sudoeste 0.2 -- -- 92
2018-05-21 04:00:00 17.5 7 Sudoeste 17 Sudoeste 0 -- -- 89
2018-05-21 03:00:00 17.4 6 Sudoeste 11 Sudoeste 0 -- -- 90
2018-05-21 02:00:00 16.9 3 Sur 9 Sudoeste 0 -- -- 90
2018-05-21 01:00:00 16.9 4 Sudoeste 7 Sudoeste 0 -- -- 91
2018-05-21 00:00:00 16.2 3 Sur 4 Sur 0 -- -- 89
2018-05-20 23:00:00 16.6 2 Sudoeste 5 Sudoeste 0 -- -- 87
2018-05-20 22:00:00 17.3 0 Calma 5 Sur 0 -- -- 86
2018-05-20 21:00:00 17.9 4 Sudoeste 10 Sur 0 -- -- 84
2018-05-20 20:00:00 18.3 6 Sur 14 Sur 0 -- -- 82
2018-05-20 19:00:00 19 9 Sur 16 Sur 0 -- -- 78
2018-05-20 18:00:00 19.8 9 Sudoeste 21 Sudoeste 0 -- -- 76
2018-05-20 17:00:00 20.3 11 Oeste 19 Sudoeste 0 -- -- 76
2018-05-20 16:00:00 19.7 13 Sur 24 Sudoeste 0 -- -- 70
2018-05-20 15:00:00 20.5 16 Sur 27 Sudeste 0 -- -- 70
2018-05-20 14:00:00 22 17 Sudeste 27 Sudeste 0 -- -- 60
2018-05-20 13:00:00 22.1 20 Sudeste 29 Sudeste 0 -- -- 65
2018-05-20 12:00:00 20.7 9 Sudoeste 22 Oeste 0 -- -- 75
2018-05-20 11:00:00 20.9 14 Sudoeste 21 Oeste 0 -- -- 72
2018-05-20 10:00:00 20.6 5 Oeste 10 Este 0 -- -- 72
2018-05-20 09:00:00 17.2 0 Calma 4 Norte 0 -- -- 90
2018-05-20 08:00:00 13.4 0 Calma 4 Norte 0 -- -- 95
2018-05-20 07:00:00 10.5 0 Calma 3 Norte 0 -- -- 95
2018-05-20 06:00:00 10.5 0 Calma 5 Nordeste 0 -- -- 95
2018-05-20 05:00:00 11.7 3 Norte 6 Norte 0 -- -- 95
2018-05-20 04:00:00 11.6 0 Calma 4 Norte 0 -- -- 94
2018-05-20 03:00:00 12 0 Calma 3 Sur 0 -- -- 93
2018-05-20 02:00:00 12.6 0 Calma 5 Sudeste 0 -- -- 92
2018-05-20 01:00:00 13 3 Sudeste 4 Sudeste 0 -- -- 90
2018-05-20 00:00:00 14.6 0 Calma 8 Nordeste 0 -- -- 89
2018-05-19 23:00:00 14.8 0 Calma 4 Sudeste 0 -- -- 87
2018-05-19 22:00:00 16.5 2 Sudoeste 8 Sur 0 -- -- 83
2018-05-19 21:00:00 18.3 5 Sur 17 Sudeste 0 -- -- 76
2018-05-19 20:00:00 19.4 15 Sudeste 27 Sudeste 0 -- -- 71
2018-05-19 19:00:00 20.4 20 Sudeste 37 Sudeste 0 -- -- 69
2018-05-19 18:00:00 22.8 22 Sudeste 31 Este 0 -- -- 57
2018-05-19 17:00:00 23.7 17 Este 30 Este 0 -- -- 50
2018-05-19 16:00:00 23.3 16 Este 30 Este 0 -- -- 48
2018-05-19 15:00:00 23.4 16 Este 31 Este 0 -- -- 53
2018-05-19 14:00:00 22.3 7 Nordeste 21 Nordeste 0 -- -- 55
2018-05-19 13:00:00 21.4 8 Norte 19 Norte 0 -- -- 60
2018-05-19 12:00:00 20 9 Nordeste 14 Nordeste 0 -- -- 68
2018-05-19 11:00:00 18.6 8 Nordeste 19 Nordeste 0 -- -- 78
2018-05-19 10:00:00 18.1 12 Nordeste 18 Norte 0 -- -- 80
2018-05-19 09:00:00 15.4 9 Norte 13 Nordeste 0 -- -- 95
2018-05-19 08:00:00 12.1 3 Norte 6 Norte 0 -- -- 97
2018-05-19 07:00:00 12.3 0 Calma 5 Norte 0 -- -- 97
2018-05-19 06:00:00 12.5 5 Norte 11 Nordeste 0 -- -- 96
2018-05-19 05:00:00 13 5 Nordeste 11 Norte 0 -- -- 96
2018-05-19 04:00:00 13.5 8 Nordeste 10 Nordeste 0 -- -- 96
2018-05-19 03:00:00 13.3 3 Norte 8 Nordeste 0 -- -- 94
2018-05-19 02:00:00 14.4 6 Nordeste 11 Nordeste 0 -- -- 93
2018-05-19 01:00:00 15.1 6 Norte 9 Norte 0 -- -- 91
2018-05-19 00:00:00 15 3 Nordeste 10 Nordeste 0 -- -- 90
2018-05-18 23:00:00 15.8 5 Nordeste 9 Nordeste 0 -- -- 88
2018-05-18 22:00:00 16.5 6 Nordeste 12 Este 0 -- -- 84
2018-05-18 21:00:00 18 8 Este 17 Este 0 -- -- 77
2018-05-18 20:00:00 19.2 9 Este 19 Nordeste 0 -- -- 74
2018-05-18 19:00:00 19.8 14 Nordeste 24 Nordeste 0 -- -- 71
2018-05-18 18:00:00 19.9 14 Nordeste 28 Este 0 -- -- 69
2018-05-18 17:00:00 20.1 17 Este 28 Este 0 -- -- 69
2018-05-18 16:00:00 20.9 15 Nordeste 26 Nordeste 0 -- -- 67
2018-05-18 15:00:00 19.9 17 Nordeste 28 Nordeste 0 -- -- 69
2018-05-18 14:00:00 19.5 16 Nordeste 24 Nordeste 0 -- -- 72
2018-05-18 13:00:00 20.2 17 Norte 26 Norte 0 -- -- 69
2018-05-18 12:00:00 19 15 Norte 25 Nordeste 0 -- -- 72
2018-05-18 11:00:00 18.7 14 Norte 27 Norte 0 -- -- 73
2018-05-18 10:00:00 17.6 14 Norte 21 Norte 0 -- -- 80
2018-05-18 09:00:00 16.5 8 Norte 11 Norte 0 -- -- 87
2018-05-18 08:00:00 15 2 Nordeste 6 Norte 0 -- -- 92
2018-05-18 07:00:00 14.3 0 Calma 3 Sur 0 -- -- 92
2018-05-18 06:00:00 14.5 2 Nordeste 7 Norte 0 -- -- 91
2018-05-18 05:00:00 14.4 2 Nordeste 7 Norte 0 -- -- 92
2018-05-18 04:00:00 14 0 Calma 5 Norte 0 -- -- 92
2018-05-18 03:00:00 13.8 0 Calma 3 Sudeste 0 -- -- 93
2018-05-18 02:00:00 13.7 0 Calma 4 Norte 0 -- -- 91
2018-05-18 01:00:00 13.5 0 Calma 5 Norte 0 -- -- 89
2018-05-18 00:00:00 15 0 Calma 6 Norte 0 -- -- 87
2018-05-17 23:00:00 16.6 5 Norte 10 Norte 0 -- -- 86
2018-05-17 22:00:00 17.3 0 Calma 8 Sudoeste 0 -- -- 84
2018-05-17 21:00:00 18.2 6 Sudoeste 10 Oeste 0 -- -- 79
2018-05-17 20:00:00 19 8 Oeste 19 Oeste 0 -- -- 77
2018-05-17 19:00:00 19.4 15 Oeste 20 Oeste 0 -- -- 76
2018-05-17 18:00:00 20.7 9 Oeste 28 Este 0 -- -- 71
2018-05-17 17:00:00 20.6 19 Este 33 Este 0 -- -- 64
2018-05-17 16:00:00 20.9 24 Este 45 Este 0 -- -- 62
2018-05-17 15:00:00 21.8 24 Este 41 Este 0 -- -- 56
2018-05-17 14:00:00 22.4 24 Este 36 Sudeste 0 -- -- 53
2018-05-17 13:00:00 22.1 18 Este 28 Este 0 -- -- 57
2018-05-17 12:00:00 20.9 16 Este 24 Sudeste 0 -- -- 63
2018-05-17 11:00:00 20.4 6 Este 17 Sudeste 0 -- -- 60
2018-05-17 10:00:00 18.4 11 Nordeste 19 Nordeste 0 -- -- 70
2018-05-17 09:00:00 15 3 Noroeste 5 Noroeste 0 -- -- 95
2018-05-17 08:00:00 12.6 2 Nordeste 6 Norte 0 -- -- 96
2018-05-17 07:00:00 10.4 0 Calma -- -- 0 -- -- 95
2018-05-17 06:00:00 10.3 0 Calma 4 Norte 0 -- -- 93
2018-05-17 05:00:00 9.8 0 Calma 3 Sudeste 0 -- -- 93
2018-05-17 04:00:00 11.1 2 Norte 5 Norte 0 -- -- 94
2018-05-17 03:00:00 10.8 0 Calma 4 Norte 0 -- -- 92
2018-05-17 02:00:00 11.4 0 Calma 4 Norte 0 -- -- 91
2018-05-17 01:00:00 12 2 Sudeste 6 Este 0 -- -- 90
2018-05-17 00:00:00 12.4 2 Sudeste 4 Sudeste 0 -- -- 87
2018-05-16 23:00:00 13.9 0 Calma 4 Sudeste 0 -- -- 82
2018-05-16 22:00:00 16.5 0 Calma 8 Este 0 -- -- 77
2018-05-16 21:00:00 17.7 8 Este 20 Sudeste 0 -- -- 73
2018-05-16 20:00:00 19.7 13 Sudeste 22 Sudeste 0 -- -- 61
2018-05-16 19:00:00 20.7 14 Sudeste 26 Sudeste 0 -- -- 57
2018-05-16 18:00:00 21.7 18 Sudeste 28 Sudeste 0 -- -- 46
2018-05-16 17:00:00 22.3 17 Sudeste 26 Este 0 -- -- 43
2018-05-16 16:00:00 22.6 12 Sudeste 26 Sudeste 0 -- -- 46
2018-05-16 15:00:00 22.4 13 Sudeste 23 Sudeste 0 -- -- 54
2018-05-16 14:00:00 21.8 15 Sudeste 24 Este 0 -- -- 48
2018-05-16 13:00:00 21.6 17 Sudeste 30 Sudeste 0 -- -- 49
2018-05-16 12:00:00 21.4 16 Sudeste 26 Sudeste 0 -- -- 47
2018-05-16 11:00:00 21.2 10 Este 20 Este 0 -- -- 50
2018-05-16 10:00:00 19.4 6 Este 14 Este 0 -- -- 58
2018-05-16 09:00:00 15.9 4 Norte 8 Norte 0 -- -- 82
2018-05-16 08:00:00 11.7 0 Calma 4 Norte 0 -- -- 93
2018-05-16 07:00:00 8.9 0 Calma 4 Sudeste 0 -- -- 95
2018-05-16 06:00:00 8.7 3 Norte 6 Norte 0 -- -- 95
2018-05-16 05:00:00 9.3 0 Calma 5 Norte 0 -- -- 94
2018-05-16 04:00:00 8.8 0 Calma 3 Norte 0 -- -- 92
2018-05-16 03:00:00 9.6 0 Calma 5 Norte 0 -- -- 92
2018-05-16 02:00:00 9.9 0 Calma 4 Sudeste 0 -- -- 91
2018-05-16 01:00:00 11 0 Calma 5 Nordeste 0 -- -- 89
2018-05-16 00:00:00 11.4 3 Sudeste 6 Sudeste 0 -- -- 86
2018-05-15 23:00:00 14.1 2 Nordeste 9 Norte 0 -- -- 81
2018-05-15 22:00:00 16.3 4 Oeste 12 Oeste 0 -- -- 74
2018-05-15 21:00:00 17 10 Oeste 26 Oeste 0 -- -- 68
2018-05-15 20:00:00 18.3 18 Oeste 30 Oeste 0 -- -- 65
2018-05-15 19:00:00 18.4 22 Oeste 34 Oeste 0 -- -- 64
2018-05-15 18:00:00 18.7 18 Sudoeste 37 Oeste 0 -- -- 63
2018-05-15 17:00:00 18.9 19 Sudoeste 33 Sudoeste 0 -- -- 65
2018-05-15 16:00:00 19.2 24 Oeste 36 Oeste 0 -- -- 60
2018-05-15 15:00:00 19.2 18 Sudoeste 30 Sudoeste 0 -- -- 59
2018-05-15 14:00:00 19.3 16 Sudoeste 31 Oeste 0 -- -- 65
2018-05-15 13:00:00 19.1 18 Sudoeste 31 Oeste 0 -- -- 70
2018-05-15 12:00:00 18.8 13 Sudoeste 23 Sudoeste 0 -- -- 66
2018-05-15 11:00:00 18.4 13 Sudoeste 22 Sudoeste 0 -- -- 70
2018-05-15 10:00:00 17.7 12 Sur 19 Sur 0 -- -- 71
2018-05-15 09:00:00 14.7 0 Calma 7 Oeste 0 -- -- 85
2018-05-15 08:00:00 11.1 0 Calma 4 Norte 0 -- -- 92
2018-05-15 07:00:00 8.3 0 Calma 5 Norte 0 -- -- 95
2018-05-15 06:00:00 7.4 0 Calma 5 Sudeste 0 -- -- 94
2018-05-15 05:00:00 7.5 2 Sudeste 4 Sudeste 0 -- -- 93
2018-05-15 04:00:00 8.6 0 Calma 4 Noroeste 0 -- -- 93
2018-05-15 03:00:00 8.5 0 Calma 3 Sur 0 -- -- 92
2018-05-15 02:00:00 8.9 0 Calma 5 Norte 0 -- -- 90
2018-05-15 01:00:00 9.9 0 Calma 9 Norte 0 -- -- 86
2018-05-15 00:00:00 11.3 0 Calma 9 Sudeste 0 -- -- 86
2018-05-14 23:00:00 12.3 5 Sudeste 10 Sudeste 0 -- -- 79
2018-05-14 22:00:00 14.1 5 Sudeste 8 Sudeste 0 -- -- 73
2018-05-14 21:00:00 15.9 5 Nordeste 30 Oeste 0 -- -- 64
2018-05-14 20:00:00 17.1 24 Oeste 36 Oeste 0 -- -- 61
2018-05-14 19:00:00 18.2 24 Oeste 40 Oeste 0 -- -- 56
2018-05-14 18:00:00 18.5 24 Oeste 39 Oeste 0 -- -- 56
2018-05-14 17:00:00 19 27 Oeste 38 Oeste 0 -- -- 51
2018-05-14 16:00:00 18.4 27 Oeste 44 Oeste 0 -- -- 57
2018-05-14 15:00:00 18.8 31 Oeste 48 Oeste 0 -- -- 55
2018-05-14 14:00:00 19 28 Oeste 37 Oeste 0 -- -- 57
2018-05-14 13:00:00 19.2 20 Oeste 35 Oeste 0 -- -- 49
2018-05-14 12:00:00 17.7 20 Noroeste 38 Oeste 0 -- -- 53
2018-05-14 11:00:00 15.9 22 Noroeste 38 Noroeste 0 -- -- 60
2018-05-14 10:00:00 15.8 23 Noroeste 33 Noroeste 0 -- -- 60
2018-05-14 09:00:00 15.8 17 Noroeste 24 Noroeste 0 -- -- 66
2018-05-14 08:00:00 15.7 13 Noroeste 31 Noroeste 0 -- -- 71
2018-05-14 07:00:00 15.4 18 Oeste 26 Oeste 0 -- -- 78
2018-05-14 06:00:00 15.3 17 Oeste 26 Oeste 0 -- -- 77
2018-05-14 05:00:00 15.4 20 Oeste 29 Oeste 0 -- -- 73
2018-05-14 04:00:00 15.1 17 Oeste 28 Oeste 0 -- -- 74
2018-05-14 03:00:00 15.6 18 Oeste 31 Oeste 0 -- -- 68
2018-05-14 02:00:00 11.2 9 Oeste 23 Oeste 0 -- -- 92
2018-05-14 01:00:00 9.7 2 Nordeste 6 Sudeste 0 -- -- 87
2018-05-11 20:00:00 -- -- -- -- -- -- -- -- --
2018-05-11 19:00:00 20.3 14 Sudeste 25 Sudeste 0 -- -- 66
2018-05-11 18:00:00 20.8 16 Sudeste 28 Sudeste 0 -- -- 61
2018-05-11 17:00:00 21.6 14 Sur 24 Sur 0 -- -- 56
2018-05-11 16:00:00 22 13 Sur 30 Sudeste 0 -- -- 55
2018-05-11 15:00:00 22.2 16 Sudeste 30 Sudeste 0 -- -- 54
2018-05-11 14:00:00 21.9 19 Sudeste 32 Sudeste 0 -- -- 54
2018-05-11 13:00:00 21.2 14 Sur 23 Sudoeste 0 -- -- 61
2018-05-11 12:00:00 20.7 13 Sudoeste 23 Sudoeste 0 -- -- 64
2018-05-11 11:00:00 20.6 9 Sudoeste 18 Oeste 0 -- -- 66
2018-05-11 10:00:00 19.1 7 Sudeste 14 Sudeste 0 -- -- 73
2018-05-11 09:00:00 16 4 Norte 8 Norte 0 -- -- 93
2018-05-11 08:00:00 12.7 2 Norte 4 Norte 0 -- -- 96
2018-05-11 07:00:00 10.8 0 Calma 3 Noroeste 0 -- -- 96
2018-05-11 06:00:00 11 0 Calma 4 Norte 0 -- -- 96
2018-05-11 05:00:00 12.1 2 Norte 4 Noroeste 0 -- -- 96
2018-05-11 04:00:00 12.3 0 Calma 5 Norte 0 -- -- 95
2018-05-11 03:00:00 11.7 0 Calma 2 Sudeste 0 -- -- 93
2018-05-11 02:00:00 12.7 0 Calma 4 Norte 0 -- -- 92
2018-05-11 01:00:00 14.4 0 Calma 8 Nordeste 0 -- -- 90
2018-05-11 00:00:00 15.5 4 Nordeste 7 Nordeste 0 -- -- 90
2018-05-10 23:00:00 15.6 4 Este 15 Este 0 -- -- 88
2018-05-10 22:00:00 16.1 12 Sudeste 17 Este 0 -- -- 86
2018-05-10 21:00:00 16.9 10 Sudeste 22 Sudeste 0 -- -- 80
2018-05-10 20:00:00 18.7 14 Sudeste 20 Este 0 -- -- 74
2018-05-10 19:00:00 19.7 13 Sudeste 25 Este 0 -- -- 68
2018-05-10 18:00:00 20.4 17 Sudeste 26 Sudeste 0 -- -- 70
2018-05-10 17:00:00 20.4 18 Sudeste 30 Sudeste 0 -- -- 70
2018-05-10 16:00:00 21.3 22 Sudeste 36 Sudeste 0 -- -- 65
2018-05-10 15:00:00 22 22 Sudeste 33 Sudeste 0 -- -- 64
2018-05-10 14:00:00 22.6 21 Sudeste 32 Sudeste 0 -- -- 62
2018-05-10 13:00:00 22.3 22 Este 32 Este 0 -- -- 64
2018-05-10 12:00:00 21.3 13 Este 26 Este 0 -- -- 73
2018-05-10 11:00:00 20.4 10 Este 21 Este 0 -- -- 77
2018-05-10 10:00:00 18.5 9 Este 13 Nordeste 0 -- -- 83
2018-05-10 09:00:00 16.8 2 Nordeste 5 Nordeste 0 -- -- 94
2018-05-10 08:00:00 15.5 2 Norte 3 Norte 0 -- -- 95
2018-05-10 07:00:00 15 0 Calma 4 Este 0 -- -- 95
2018-05-10 06:00:00 15.8 2 Nordeste 6 Norte 0 -- -- 95
2018-05-10 05:00:00 15.8 3 Nordeste 9 Norte 0 -- -- 95
2018-05-10 04:00:00 15.4 3 Sur 7 Sudoeste 0 -- -- 95
2018-05-10 03:00:00 15.1 4 Sur 8 Sur 0 -- -- 94
2018-05-10 02:00:00 15 5 Sur 6 Sudeste 0 -- -- 93
2018-05-10 01:00:00 16.6 3 Sur 8 Sudoeste 0 -- -- 91
2018-05-10 00:00:00 16.9 5 Sudoeste 13 Sudoeste 0 -- -- 90
2018-05-09 23:00:00 17.1 5 Sudoeste 9 Sudoeste 0 -- -- 91
2018-05-09 22:00:00 16.9 5 Sur 11 Sudoeste 0 -- -- 90
2018-05-09 21:00:00 17.4 8 Sudoeste 16 Oeste 0 -- -- 88
2018-05-09 20:00:00 18.5 10 Sudoeste 20 Oeste 0 -- -- 84
2018-05-09 19:00:00 19 9 Sudoeste 23 Sudoeste 0 -- -- 83
2018-05-09 18:00:00 19 13 Sudoeste 23 Sudoeste 0 -- -- 82
2018-05-09 17:00:00 19.4 13 Sudoeste 24 Oeste 0 -- -- 80
2018-05-09 16:00:00 19.8 14 Sudoeste 28 Sudoeste 0 -- -- 78
2018-05-09 15:00:00 19.8 13 Sudoeste 22 Sudoeste 0 -- -- 80
2018-05-09 14:00:00 19.3 13 Sudoeste 26 Oeste 0 -- -- 80
2018-05-09 13:00:00 18.7 19 Oeste 31 Oeste 0 -- -- 84
2018-05-09 12:00:00 18.5 17 Oeste 33 Oeste 0 -- -- 84
2018-05-09 11:00:00 18.5 21 Oeste 28 Oeste 0 -- -- 84
2018-05-09 10:00:00 17.9 17 Oeste 23 Oeste 0 -- -- 88
2018-05-09 09:00:00 17.2 12 Oeste 19 Oeste 0 -- -- 91
2018-05-09 08:00:00 15.1 3 Noroeste 13 Oeste 0 -- -- 96
2018-05-09 07:00:00 15.1 5 Sudoeste 11 Oeste 0 -- -- 96
2018-05-09 06:00:00 13 4 Sur 6 Sudeste 0 -- -- 96
2018-05-09 05:00:00 13.4 4 Sudeste 6 Norte 0 -- -- 94
2018-05-09 04:00:00 14.4 0 Calma 7 Norte 0 -- -- 94
2018-05-09 03:00:00 15.2 3 Norte 15 Oeste 0 -- -- 91
2018-05-09 02:00:00 15.6 5 Sudoeste 10 Sudoeste 0 -- -- 95
2018-05-09 01:00:00 13.9 5 Sudeste 7 Noroeste 0 -- -- 92
2018-05-09 00:00:00 15.6 2 Oeste 7 Noroeste 0 -- -- 88
2018-05-08 23:00:00 16.3 4 Oeste 15 Oeste 0 -- -- 88
2018-05-08 22:00:00 16.9 13 Oeste 20 Oeste 0 -- -- 86
2018-05-08 21:00:00 17.1 14 Oeste 21 Oeste 0 -- -- 85
2018-05-08 20:00:00 18.1 14 Oeste 24 Oeste 0 -- -- 79
2018-05-08 19:00:00 18.6 13 Sudoeste 23 Oeste 0 -- -- 77
2018-05-08 18:00:00 18.9 14 Oeste 21 Sudoeste 0 -- -- 77
2018-05-08 17:00:00 18.4 14 Oeste 21 Sudoeste 0 -- -- 78
2018-05-08 16:00:00 18.6 14 Oeste 25 Sudoeste 0 -- -- 77
2018-05-08 15:00:00 19.5 14 Sudoeste 26 Sudoeste 0 -- -- 75
2018-05-08 14:00:00 19 16 Sudoeste 27 Sudoeste 0 -- -- 76
2018-05-08 13:00:00 18.8 17 Sudoeste 39 Sudoeste 0 -- -- 77
2018-05-08 12:00:00 18.9 18 Sudoeste 30 Sudoeste 0 -- -- 79
2018-05-08 11:00:00 18.9 14 Oeste 22 Oeste 0 -- -- 78
2018-05-08 10:00:00 18.4 4 Norte 12 Norte 0 -- -- 82
2018-05-08 09:00:00 16.8 8 Noroeste 13 Noroeste 0 -- -- 87
2018-05-08 08:00:00 15.3 6 Norte 9 Noroeste 0 -- -- 96
2018-05-08 07:00:00 13.9 2 Sur 5 Sur 0 -- -- 98
2018-05-08 06:00:00 12.9 2 Sudeste 4 Sudeste 0 -- -- 97
2018-05-08 05:00:00 13.4 2 Norte 5 Noroeste 0 -- -- 97
2018-05-08 04:00:00 13.3 0 Calma 2 Sur 0 -- -- 96
2018-05-08 03:00:00 13.4 0 Calma 7 Norte 0 -- -- 96
2018-05-08 02:00:00 12.8 0 Calma 3 Sudeste 0 -- -- 95
2018-05-08 01:00:00 12.6 0 Calma 7 Sudeste 0 -- -- 95
2018-05-08 00:00:00 12.8 7 Sudeste 8 Sudeste 0 -- -- 94
2018-05-07 23:00:00 13.5 4 Sudeste 6 Sudeste 0 -- -- 91
2018-05-07 22:00:00 14.7 3 Sur 9 Oeste 0 -- -- 87
2018-05-07 21:00:00 16.9 5 Oeste 9 Oeste 0 -- -- 79
2018-05-07 20:00:00 18.2 6 Oeste 15 Oeste 0 -- -- 77
2018-05-07 19:00:00 18.4 11 Oeste 20 Oeste 0 -- -- 76
2018-05-07 18:00:00 19.1 14 Oeste 23 Oeste 0 -- -- 73
2018-05-07 17:00:00 19.3 14 Oeste 23 Sudoeste 0 -- -- 74
2018-05-07 16:00:00 19.5 12 Sudoeste 27 Sudoeste 0 -- -- 72
2018-05-07 15:00:00 19.8 11 Sur 25 Sur 0 -- -- 73
2018-05-07 14:00:00 19.3 11 Sudoeste 25 Sudoeste 0 -- -- 73
2018-05-07 13:00:00 19 13 Sur 24 Sudoeste 0 -- -- 73
2018-05-07 12:00:00 18.5 8 Sur 19 Sudeste 0 -- -- 75
2018-05-07 11:00:00 17.7 7 Sur 19 Este 0 -- -- 78
2018-05-07 10:00:00 17 7 Este 14 Este 0 -- -- 87
2018-05-07 09:00:00 15.3 8 Norte 15 Norte 0 -- -- 97
2018-05-07 08:00:00 13.7 8 Nordeste 13 Norte 0 -- -- 99
2018-05-07 07:00:00 14 6 Norte 9 Norte 0 -- -- 98
2018-05-07 06:00:00 13.8 5 Norte 11 Nordeste 0 -- -- 97
2018-05-07 05:00:00 14.4 6 Norte 9 Norte 0 -- -- 96
2018-05-07 04:00:00 14.9 0 Calma 8 Sur 0 -- -- 97
2018-05-07 03:00:00 15.1 3 Sudeste 8 Nordeste 0 -- -- 96
2018-05-07 02:00:00 15.1 4 Nordeste 10 Norte 0 -- -- 97
2018-05-07 01:00:00 15.3 5 Nordeste 8 Nordeste 0 -- -- 96
2018-05-07 00:00:00 14.2 0 Calma 4 Norte 0 -- -- 96
2018-05-06 23:00:00 13.9 0 Calma 5 Noroeste 0 -- -- 94
2018-05-06 22:00:00 15.2 0 Calma 3 Sudeste 0 -- -- 92
2018-05-06 21:00:00 16.2 0 Calma 11 Sudeste 0 -- -- 91
2018-05-06 20:00:00 17.8 9 Sudeste 17 Sudeste 0 -- -- 86
2018-05-06 19:00:00 18.9 13 Sudeste 24 Sudeste 0 -- -- 82
2018-05-06 18:00:00 18.8 12 Sur 21 Sur 0 -- -- 80
2018-05-06 17:00:00 18.7 17 Sur 27 Sur 0 -- -- 80
2018-05-06 16:00:00 20.7 15 Sudoeste 26 Sudoeste 0 -- -- 70
2018-05-06 15:00:00 21 12 Oeste 25 Nordeste 0 -- -- 68
2018-05-06 14:00:00 21.7 14 Nordeste 31 Norte 0 -- -- 66
2018-05-06 13:00:00 20.7 17 Nordeste 33 Nordeste 0 -- -- 71
2018-05-06 12:00:00 19.6 19 Nordeste 37 Nordeste 0 -- -- 73
2018-05-06 11:00:00 19.1 19 Nordeste 32 Norte 0 -- -- 76
2018-05-06 10:00:00 17.3 13 Nordeste 22 Nordeste 0 -- -- 85
2018-05-06 09:00:00 16.1 10 Nordeste 15 Norte 0 -- -- 92
2018-05-06 08:00:00 14.3 8 Nordeste 13 Nordeste 0 -- -- 97
2018-05-06 07:00:00 13.1 3 Nordeste 5 Nordeste 0 -- -- 99
2018-05-06 06:00:00 13 3 Noroeste 5 Norte 0 -- -- 98
2018-05-06 05:00:00 12.2 4 Norte 7 Norte 0 -- -- 98
2018-05-06 04:00:00 12.2 5 Norte 9 Nordeste 0 -- -- 97
2018-05-06 03:00:00 12.6 6 Norte 11 Nordeste 0 -- -- 98
2018-05-06 02:00:00 11.5 0 Calma 6 Norte 0 -- -- 97
2018-05-06 01:00:00 12.9 4 Nordeste 10 Norte 0 -- -- 98
2018-05-06 00:00:00 12.9 5 Norte 9 Norte 0 -- -- 97
2018-05-05 23:00:00 13.7 7 Norte 12 Nordeste 0 -- -- 95
2018-05-05 22:00:00 14.8 8 Norte 12 Nordeste 0 -- -- 94
2018-05-05 21:00:00 15.8 10 Norte 22 Norte 0 -- -- 89
2018-05-05 20:00:00 17.5 16 Norte 24 Nordeste 0 -- -- 84
2018-05-05 19:00:00 17.7 20 Norte 30 Norte 0 -- -- 82
2018-05-05 18:00:00 17.6 20 Norte 29 Norte 0 -- -- 84
2018-05-05 17:00:00 18.2 19 Norte 35 Norte 0 -- -- 83
2018-05-05 16:00:00 18.3 24 Nordeste 36 Nordeste 0 -- -- 84
2018-05-05 15:00:00 16.7 15 Norte 23 Norte 0 -- -- 90
2018-05-05 14:00:00 15.6 13 Noroeste 19 Noroeste 0 -- -- 93
2018-05-05 13:00:00 15.5 15 Noroeste 22 Noroeste 0 -- -- 94
2018-05-05 12:00:00 14.5 14 Noroeste 20 Noroeste 2.8 -- -- 97
2018-05-05 11:00:00 13.9 12 Oeste 20 Noroeste 3.8 -- -- 97
2018-05-05 10:00:00 13.8 12 Noroeste 17 Noroeste 3.4 -- -- 96
2018-05-05 09:00:00 13.8 10 Noroeste 14 Noroeste 2.8 -- -- 95
2018-05-05 08:00:00 13.8 5 Noroeste 12 Oeste 1.2 -- -- 94
2018-05-05 07:00:00 13.8 8 Oeste 14 Oeste 0.2 -- -- 92
2018-05-05 06:00:00 13.5 5 Oeste 11 Noroeste 1 -- -- 90
2018-05-05 05:00:00 13.8 6 Noroeste 16 Noroeste 0 -- -- 88
2018-05-05 04:00:00 13.7 13 Noroeste 17 Noroeste 0 -- -- 88
2018-05-05 03:00:00 14 8 Noroeste 12 Noroeste 0 -- -- 88
2018-05-05 02:00:00 13.8 0 Calma 8 Noroeste 0 -- -- 90
2018-05-05 01:00:00 13.8 2 Norte 7 Nordeste 0.2 -- -- 90
2018-05-05 00:00:00 14.5 0 Calma 10 Oeste 0 -- -- 84
2018-05-04 23:00:00 14.5 6 Oeste 9 Oeste 0 -- -- 82
2018-05-04 22:00:00 14.2 2 Noroeste 10 Noroeste 0 -- -- 81
2018-05-04 21:00:00 14.6 5 Oeste 12 Oeste 0 -- -- 80
2018-05-04 20:00:00 15.3 11 Noroeste 17 Noroeste 0.2 -- -- 83
2018-05-04 19:00:00 15.8 9 Norte 15 Norte 0 -- -- 78
2018-05-04 18:00:00 15.8 10 Noroeste 14 Noroeste 0.2 -- -- 82
2018-05-04 17:00:00 15.2 10 Norte 19 Norte 0.2 -- -- 86
2018-05-04 16:00:00 16.8 15 Noroeste 24 Oeste 0.2 -- -- 78
2018-05-04 15:00:00 16.6 18 Oeste 23 Oeste 0 -- -- 80
2018-05-04 14:00:00 16.8 14 Oeste 19 Oeste 0 -- -- 78
2018-05-04 13:00:00 17.2 7 Oeste 12 Oeste 0 -- -- 75
2018-05-04 12:00:00 15.9 2 Oeste 9 Oeste 0 -- -- 82
2018-05-04 11:00:00 15.1 3 Norte 13 Nordeste 0.2 -- -- 82
2018-05-04 10:00:00 15.1 7 Norte 12 Norte 0 -- -- 79
2018-05-04 09:00:00 14 2 Norte 10 Norte 0 -- -- 83
2018-05-04 08:00:00 13.5 5 Norte 21 Noroeste 0 -- -- 83
2018-05-04 07:00:00 12 6 Noroeste 12 Oeste 0 -- -- 93
2018-05-04 06:00:00 11.2 0 Calma 6 Oeste 0 -- -- 93
2018-05-04 05:00:00 11.3 0 Calma 5 Nordeste 0 -- -- 92
2018-05-04 04:00:00 10.9 2 Nordeste 4 Este 0 -- -- 92
2018-05-04 03:00:00 10.5 3 Oeste 8 Oeste 0 -- -- 92
2018-05-04 02:00:00 10.4 2 Sudeste 3 Este 0 -- -- 91
2018-05-04 01:00:00 10.7 0 Calma 3 Este 0 -- -- 89
2018-05-04 00:00:00 11.1 2 Sur 4 Sudoeste 0 -- -- 88
2018-05-03 23:00:00 12.1 0 Calma 4 Nordeste 0 -- -- 80
2018-05-03 22:00:00 15.3 0 Calma 21 Nordeste 0 -- -- 73
2018-05-03 21:00:00 17.4 12 Norte 21 Nordeste 0 -- -- 63
2018-05-03 20:00:00 18.9 15 Oeste 27 Sudoeste 0 -- -- 59
2018-05-03 19:00:00 19.4 13 Sudoeste 29 Oeste 0 -- -- 60
2018-05-03 18:00:00 19.4 22 Oeste 34 Oeste 0 -- -- 62
2018-05-03 17:00:00 19.5 15 Oeste 36 Oeste 0 -- -- 69
2018-05-03 16:00:00 19.4 19 Sudoeste 30 Sudoeste 0 -- -- 61
2018-05-03 15:00:00 20.7 18 Sur 29 Sur 0 -- -- 47
2018-05-03 14:00:00 22.2 7 Noroeste 22 Nordeste 0 -- -- 33
2018-05-03 13:00:00 20.9 11 Nordeste 32 Norte 0 -- -- 42
2018-05-03 12:00:00 19.8 17 Nordeste 31 Nordeste 0 -- -- 42
2018-05-03 11:00:00 19 18 Nordeste 29 Nordeste 0 -- -- 50
2018-05-03 10:00:00 17.4 13 Norte 19 Norte 0 -- -- 70
2018-05-03 09:00:00 14.3 0 Calma 10 Nordeste 0 -- -- 86
2018-05-03 08:00:00 10.9 0 Calma 4 Sudoeste 0 -- -- 98
2018-05-03 07:00:00 6.8 0 Calma 3 Oeste 0 -- -- 96
2018-05-03 06:00:00 7.5 2 Norte 5 Sudeste 0 -- -- 96
2018-05-03 05:00:00 7.3 3 Sur 5 Sudeste 0 -- -- 95
2018-05-03 04:00:00 7.5 3 Sudeste 4 Sudeste 0 -- -- 95
2018-05-03 03:00:00 8 0 Calma 4 Sudeste 0 -- -- 94
2018-05-03 02:00:00 8.6 3 Sudeste 8 Sudeste 0 -- -- 93
2018-05-03 01:00:00 8.8 6 Sudeste 8 Sudeste 0 -- -- 91
2018-05-03 00:00:00 10.6 0 Calma 5 Nordeste 0 -- -- 84
2018-05-02 23:00:00 13.7 5 Norte 16 Oeste 0 -- -- 77
2018-05-02 22:00:00 15.1 14 Oeste 29 Oeste 0 -- -- 75
2018-05-02 21:00:00 15.7 16 Oeste 32 Oeste 0 -- -- 71
2018-05-02 20:00:00 17.3 23 Oeste 34 Oeste 0 -- -- 63
2018-05-02 19:00:00 18.4 20 Oeste 36 Oeste 0 -- -- 63
2018-05-02 18:00:00 18.7 28 Oeste 42 Oeste 0 -- -- 59
2018-05-02 17:00:00 18.1 30 Oeste 57 Oeste 0 -- -- 68
2018-05-02 16:00:00 17.7 31 Oeste 55 Oeste 0 -- -- 69
2018-05-02 15:00:00 18 33 Oeste 50 Oeste 0 -- -- 68
2018-05-02 14:00:00 17.7 32 Oeste 46 Oeste 0 -- -- 66
2018-05-02 13:00:00 17.9 27 Oeste 46 Oeste 0 -- -- 63
2018-05-02 12:00:00 17.6 28 Noroeste 41 Noroeste 0 -- -- 56
2018-05-02 11:00:00 16.6 22 Oeste 35 Oeste 0 -- -- 64
2018-05-02 10:00:00 15.4 26 Oeste 37 Oeste 0 -- -- 69
2018-05-02 09:00:00 13.8 22 Noroeste 28 Oeste 0 -- -- 78
2018-05-02 08:00:00 8.7 0 Calma 5 Sudeste 0 -- -- 96
2018-05-02 07:00:00 5.8 3 Sudeste 8 Norte 0 -- -- 92
2018-05-02 06:00:00 8.6 5 Noroeste 11 Norte 0 -- -- 92
2018-05-02 05:00:00 5.7 4 Noroeste 8 Noroeste 0 -- -- 96
2018-05-02 04:00:00 6.2 0 Calma 5 Noroeste 0 -- -- 95
2018-05-02 03:00:00 6.5 2 Norte 4 Norte 0 -- -- 94
2018-05-02 02:00:00 6.9 0 Calma 6 Norte 0 -- -- 94
2018-05-02 01:00:00 7 2 Norte 4 Noroeste 0 -- -- 93
2018-05-02 00:00:00 8 0 Calma 6 Noroeste 0 -- -- 90
2018-05-01 23:00:00 10.1 0 Calma 13 Norte 0 -- -- 87
2018-05-01 22:00:00 11.2 10 Nordeste 15 Nordeste 0 -- -- 87
2018-05-01 21:00:00 12 6 Norte 21 Norte 0 -- -- 85
2018-05-01 20:00:00 13.8 16 Norte 24 Norte 0 -- -- 76
2018-05-01 19:00:00 14.3 14 Nordeste 36 Nordeste 0 -- -- 78
2018-05-01 18:00:00 14.3 21 Nordeste 36 Norte 0 -- -- 80
2018-05-01 17:00:00 14.6 13 Sudeste 19 Sudeste 0.2 -- -- 87
2018-05-01 16:00:00 13 13 Nordeste 24 Nordeste 4.8 -- -- 92
2018-05-01 15:00:00 12.3 17 Noroeste 37 Oeste 3 -- -- 90
2018-05-01 14:00:00 16 18 Nordeste 28 Nordeste 0.2 -- -- 66
2018-05-01 13:00:00 16.5 13 Nordeste 23 Nordeste 0 -- -- 68
2018-05-01 12:00:00 15.4 15 Norte 21 Este 0 -- -- 74
2018-05-01 11:00:00 14 12 Nordeste 18 Nordeste 0 -- -- 87
2018-05-01 10:00:00 12.2 12 Nordeste 18 Nordeste 0 -- -- 93
2018-05-01 09:00:00 11.5 3 Norte 10 Oeste 0 -- -- 93
2018-05-01 08:00:00 11 6 Nordeste 13 Nordeste 0.8 -- -- 93
2018-05-01 07:00:00 10.7 8 Este 19 Sudeste 0.8 -- -- 94
2018-05-01 06:00:00 10.8 7 Norte 36 Norte 4.6 -- -- 93
2018-05-01 05:00:00 14.7 13 Sudoeste 33 Sur 0 -- -- 85
2018-05-01 04:00:00 14.4 17 Sur 32 Sur 0 -- -- 83
2018-05-01 03:00:00 14.3 17 Sur 31 Sur 0 -- -- 85
2018-05-01 02:00:00 14.9 16 Sur 27 Sur 0 -- -- 82
2018-05-01 01:00:00 15 17 Sur 29 Sur 0 -- -- 85
2018-05-01 00:00:00 15.1 15 Sur 24 Sudeste 0 -- -- 81
2018-04-30 23:00:00 14.1 6 Sur 21 Sur 0 -- -- 82
2018-04-30 22:00:00 14.6 13 Sur 19 Sur 0 -- -- 78
2018-04-30 21:00:00 15.2 13 Sur 18 Sur 0 -- -- 74
2018-04-30 20:00:00 17.1 6 Sur 12 Sur 0 -- -- 56
2018-04-30 19:00:00 16.6 5 Sudoeste 12 Sudoeste 0 -- -- 57
2018-04-30 18:00:00 17.2 8 Sudoeste 17 Oeste 0 -- -- 58
2018-04-30 17:00:00 17.1 9 Sudoeste 21 Oeste 0 -- -- 55
2018-04-30 16:00:00 18.3 15 Sudoeste 24 Sudoeste 0 -- -- 57
2018-04-30 15:00:00 18.4 14 Sudoeste 27 Sudoeste 0 -- -- 54
2018-04-30 14:00:00 18.2 17 Sudoeste 32 Oeste 0 -- -- 58
2018-04-30 13:00:00 18.2 19 Oeste 30 Oeste 0 -- -- 58
2018-04-30 12:00:00 17.7 19 Oeste 30 Oeste 0 -- -- 61
2018-04-30 11:00:00 17.4 22 Oeste 32 Oeste 0 -- -- 62
2018-04-30 10:00:00 17.4 20 Oeste 35 Oeste 0 -- -- 63
2018-04-30 09:00:00 16.9 19 Oeste 30 Oeste 0 -- -- 66
2018-04-30 08:00:00 15.4 9 Oeste 21 Oeste 0 -- -- 72
2018-04-30 07:00:00 14.3 9 Oeste 18 Oeste 0 -- -- 74
2018-04-30 06:00:00 15.1 15 Oeste 27 Oeste 0 -- -- 70
2018-04-30 05:00:00 15.5 15 Oeste 27 Oeste 0 -- -- 78
2018-04-30 04:00:00 15.3 9 Sudoeste 27 Sudoeste 0 -- -- 88
2018-04-30 03:00:00 15.4 14 Sudoeste 28 Sudoeste 0 -- -- 87
2018-04-30 02:00:00 15.6 15 Sudoeste 38 Sudoeste 0 -- -- 86
2018-04-30 01:00:00 15.7 19 Sudoeste 37 Sudoeste 0 -- -- 85
2018-04-30 00:00:00 15.8 20 Sudoeste 41 Sudoeste 0 -- -- 84
2018-04-29 23:00:00 15.8 22 Sudoeste 42 Sudoeste 0 -- -- 82
2018-04-29 22:00:00 16 19 Sudoeste 49 Sudoeste 0 -- -- 80
2018-04-29 21:00:00 16 24 Sudoeste 40 Sudoeste 0 -- -- 79
2018-04-29 20:00:00 17 21 Sudoeste 46 Sudoeste 0 -- -- 74
2018-04-29 19:00:00 17.8 22 Sudoeste 42 Sudoeste 0 -- -- 67
2018-04-29 18:00:00 18.2 24 Sudoeste 45 Sudoeste 0 -- -- 66
2018-04-29 17:00:00 18.9 25 Oeste 49 Sudoeste 0 -- -- 60
2018-04-29 16:00:00 19.1 27 Oeste 49 Sudoeste 0 -- -- 63
2018-04-29 15:00:00 19.2 25 Sudoeste 44 Sudoeste 0 -- -- 67
2018-04-29 14:00:00 18.3 20 Oeste 40 Oeste 0 -- -- 62
2018-04-29 13:00:00 17.7 24 Oeste 48 Sudoeste 0 -- -- 65
2018-04-29 12:00:00 17.9 25 Sudoeste 46 Sudoeste 0 -- -- 77
2018-04-29 11:00:00 17.2 19 Sudoeste 38 Sudoeste 0 -- -- 76
2018-04-29 10:00:00 17.1 23 Sudoeste 41 Sudoeste 0.2 -- -- 73
2018-04-29 09:00:00 16.8 12 Sur 27 Sudoeste 0 -- -- 80
2018-04-29 08:00:00 17.2 17 Sudoeste 36 Sudoeste 0.2 -- -- 81
2018-04-29 07:00:00 16.8 13 Sur 27 Sur 0 -- -- 85
2018-04-29 06:00:00 16.7 14 Sur 22 Sur 0 -- -- 87
2018-04-29 05:00:00 15.9 13 Sudeste 21 Sudeste 0 -- -- 93
2018-04-29 04:00:00 13.8 6 Sudeste 19 Sudeste 0 -- -- 95
2018-04-29 03:00:00 13.2 0 Calma 12 Sudeste 0 -- -- 94
2018-04-29 02:00:00 14.2 7 Sudeste 14 Sudeste 0 -- -- 93
2018-04-29 01:00:00 14.4 4 Sudeste 9 Sudeste 0 -- -- 93
2018-04-29 00:00:00 13.6 8 Sudeste 10 Sudeste 0 -- -- 91
2018-04-28 23:00:00 13.5 0 Calma 4 Sudeste 0 -- -- 88
2018-04-28 22:00:00 15.8 4 Sudeste 6 Sudeste 0 -- -- 85
2018-04-28 21:00:00 17.4 6 Sur 17 Sur 0 -- -- 80
2018-04-28 20:00:00 19 12 Sur 21 Sur 0 -- -- 72
2018-04-28 19:00:00 19.9 16 Sur 26 Sur 0 -- -- 68
2018-04-28 18:00:00 20.8 13 Sur 24 Sur 0 -- -- 67
2018-04-28 17:00:00 20.7 17 Sur 35 Sur 0 -- -- 67
2018-04-28 16:00:00 20.8 17 Sur 24 Sur 0 -- -- 68
2018-04-28 15:00:00 20.9 15 Sur 26 Sur 0 -- -- 67
2018-04-28 14:00:00 20.8 18 Sur 26 Sur 0 -- -- 67
2018-04-28 13:00:00 20.6 17 Sur 27 Sur 0 -- -- 73
2018-04-28 12:00:00 19.9 15 Sur 28 Sur 0 -- -- 75
2018-04-28 11:00:00 19.2 16 Sur 28 Sur 0 -- -- 79
2018-04-28 10:00:00 18.4 11 Sur 18 Sudeste 0 -- -- 81
2018-04-28 09:00:00 16 3 Noroeste 4 Noroeste 0 -- -- 94
2018-04-28 08:00:00 13 0 Calma 6 Oeste 0 -- -- 97
2018-04-28 07:00:00 12.8 2 Sudeste 4 Sudeste 0 -- -- 96
2018-04-28 06:00:00 12.8 0 Calma 6 Sudeste 0 -- -- 96
2018-04-28 05:00:00 12 0 Calma 5 Norte 0 -- -- 96
2018-04-28 04:00:00 11.5 2 Nordeste 4 Nordeste 0 -- -- 95
2018-04-28 03:00:00 10.9 0 Calma 5 Sudeste 0 -- -- 95
2018-04-28 02:00:00 11.8 0 Calma 6 Sudeste 0 -- -- 93
2018-04-28 01:00:00 12 3 Sudeste 6 Sudeste 0 -- -- 91
2018-04-28 00:00:00 14.1 0 Calma 13 Sudoeste 0 -- -- 89